Weather at Győr-Pér International Airport

Public forecast

Using degrees Celsius for public forecast. Weather courtesy of forecast.io.

Current aviation weather report (METAR) for Győr-Pér International Airport

2024/02/26 13:15 (retrieved 54 minutes ago)

LHPR 261315Z AUTO 19011KT 160V220 CAVOK 16/01 Q1006 NOSIG

Closest aviation forecast (TAF) to Győr-Pér International Airport

Closest forecast is Pápa Air Base, 20.1 nm (37.3 km) SW.

2024/02/26 12:00 (retrieved 2 hours ago)

TAF LHPA 261115Z 2612/2712 18015KT CAVOK TEMPO 2612/2615 18016G26KT BECMG 2615/2618 16006KT BECMG 2700/2703 VRB03KT BECMG 2710/2712 18006KT